Flight Track Log - Related Links

Times and Time Zones

All times are in EDT time to prevent confusion due to time zone crossing. See the EJA941 flight status page for this flight to view local times or setup timezone preferences in your user account.

Time Position Orientation Groundspeed Altitude Reporting Facility
EDT Latitude Longitude Course Direction KTS MPH feet Rate Location/Type
Sun 06:45:28 PM 41.0833 -73.8167 219° Southwest 212 244 3,500  Level New York TRACON
Sun 06:46:28 PM 41.0667 -73.9000 255° West 250 288 5,600 2,476 Climbing New York TRACON
Sun 06:47:34 PM 41.0000 -73.9500 210° Southwest 270 311 8,700 1,750 Climbing New York TRACON
Sun 06:48:28 PM 40.9333 -73.9833 201° Southwest 280 322 9,100 1,050 Climbing New York TRACON
Sun 06:49:34 PM 40.8500 -74.0333 204° Southwest 289 333 10,800 1,333 Climbing New York TRACON
Sun 06:50:00 PM 40.6656 -74.1391 219° Southwest  Level Estimated
Sun 06:50:34 PM 40.7667 -74.0833 204° Southwest 337 388 11,900  Level New York TRACON
Sun 06:51:00 PM 40.5852 -74.2247 219° Southwest  Level Estimated
Sun 06:51:34 PM 40.6667 -74.1167 194° South 382 440 12,100  Level New York TRACON
Sun 06:53:40 PM 40.4464 -74.1608 189° South 395 455 14,700 1,372 Climbing New York Center
Sun 06:54:42 PM 40.3436 -74.1831 189° South 379 436 16,400 838 Climbing New York Center
Sun 06:56:00 PM 40.2413 -74.2974 220° Southwest  Level Estimated
Sun 06:56:39 PM 40.1317 -74.2269 220° Southwest 388 447 17,200  Level New York Center
Sun 06:57:40 PM 40.0225 -74.2539 191° South 399 459 18,700 1,388 Climbing New York Center
Sun 06:58:40 PM 39.9375 -74.3147 209° Southwest 399 459 20,000 1,333 Climbing New York Center
Sun 06:59:46 PM 39.8306 -74.4161 216° Southwest 368 423 21,500 1,286 Climbing Washington Center
Sun 07:00:46 PM 39.7525 -74.5175 225° Southwest 383 441 22,700 1,190 Climbing Washington Center
Sun 07:01:47 PM 39.6783 -74.6183 226° Southwest 388 447 23,900 639 Climbing Washington Center
Sun 07:02:48 PM 39.5978 -74.7217 225° Southwest 401 461 24,000 50 Climbing Washington Center
Sun 07:03:46 PM 39.5339 -74.8086 226° Southwest 411 473 24,000  Level Washington Center
Sun 07:04:47 PM 39.4450 -74.9250 225° Southwest 411 473 24,000  Level Washington Center
Sun 07:05:48 PM 39.3642 -75.0306 225° Southwest 411 473 24,000  Level Washington Center
Sun 07:06:46 PM 39.2792 -75.1303 222° Southwest 411 473 24,000  Level Washington Center
Sun 07:07:46 PM 39.1711 -75.1819 200° South 411 473 24,000  Level Washington Center
Sun 07:08:47 PM 39.0500 -75.1853 181° South 406 467 24,000  Level Washington Center
Sun 07:09:48 PM 38.9292 -75.1886 181° South 426 490 24,000  Level Washington Center
Sun 07:10:46 PM 38.8167 -75.2186 192° South 426 490 24,000  Level Washington Center
Sun 07:11:47 PM 38.7192 -75.3044 214° Southwest 406 467 24,000  Level Washington Center
Sun 07:12:48 PM 38.6233 -75.3897 215° Southwest 413 475 24,000  Level Washington Center
Sun 07:13:46 PM 38.5275 -75.4722 214° Southwest 425 489 24,000  Level Washington Center
Sun 07:14:46 PM 38.4317 -75.5600 216° Southwest 425 489 24,000  Level Washington Center
Sun 07:15:47 PM 38.3336 -75.6447 214° Southwest 425 489 24,000  Level Washington Center
Sun 07:16:48 PM 38.2356 -75.7267 213° Southwest 425 489 24,000  Level Washington Center
Sun 07:17:46 PM 38.1394 -75.8083 214° Southwest 425 489 24,000  Level Washington Center
Sun 07:18:47 PM 38.0456 -75.8925 215° Southwest 425 489 24,000  Level Washington Center
Sun 07:19:48 PM 37.9472 -75.9736 213° Southwest 425 489 24,000  Level Washington Center
Sun 07:20:46 PM 37.8489 -76.0572 214° Southwest 420 483 24,000  Level Washington Center
Sun 07:21:47 PM 37.7444 -76.1539 216° Southwest 420 483 24,000  Level Washington Center
Sun 07:22:47 PM 37.6542 -76.2239 212° Southwest 420 483 24,000  Level Washington Center
Sun 07:23:47 PM 37.5578 -76.3069 214° Southwest 420 483 24,000  Level Washington Center
Sun 07:24:48 PM 37.4594 -76.3897 214° Southwest 425 489 24,000  Level Washington Center
Sun 07:25:48 PM 37.3608 -76.4725 214° Southwest 425 489 24,000  Level Washington Center
Sun 07:26:46 PM 37.2642 -76.5497 212° Southwest 420 483 24,000 -454 Level Washington Center
Sun 07:27:47 PM 37.1656 -76.6344 214° Southwest 425 489 23,100 -934 Descending Washington Center
Sun 07:28:48 PM 37.0644 -76.7214 214° Southwest 430 495 22,100 -555 Descending Washington Center
Sun 07:29:46 PM 36.9656 -76.8033 214° Southwest 435 501 22,000 -50 Descending Washington Center
Sun 07:30:47 PM 36.8711 -76.8822 214° Southwest 430 495 22,000  Level Washington Center
Sun 07:31:47 PM 36.7761 -76.9611 214° Southwest 420 483 22,000  Level Washington Center
Sun 07:32:48 PM 36.6856 -77.0372 214° Southwest 415 478 22,000  Level Washington Center
Sun 07:33:46 PM 36.5969 -77.1208 217° Southwest 404 465 22,000  Level Washington Center
Sun 07:34:47 PM 36.5103 -77.2072 219° Southwest 398 458 22,000  Level Washington Center
Sun 07:35:48 PM 36.4214 -77.2931 218° Southwest 398 458 22,000  Level Washington Center
Sun 07:36:46 PM 36.3347 -77.3761 218° Southwest 403 464 22,000  Level Washington Center
Sun 07:37:47 PM 36.2439 -77.4567 216° Southwest 403 464 22,000  Level Washington Center
Sun 07:38:47 PM 36.1486 -77.5444 217° Southwest 403 464 22,000  Level Washington Center
Sun 07:39:48 PM 36.0617 -77.6294 218° Southwest 398 458 22,000  Level Washington Center
Sun 07:40:46 PM 35.9767 -77.7147 219° Southwest 398 458 22,000  Level Washington Center
Sun 07:41:46 PM 35.9200 -77.8389 241° Southwest 398 458 22,000 -397 Level Washington Center
Sun 07:42:47 PM 35.8678 -77.9603 242° Southwest 408 470 21,200 -1,082 Descending Washington Center
Sun 07:43:48 PM 35.8150 -78.0844 242° Southwest 413 475 19,800 -1,462 Descending Washington Center
Sun 07:44:46 PM 35.7625 -78.2056 242° Southwest 407 468 18,300 -1,768 Descending Washington Center
Sun 07:45:40 PM 35.7142 -78.3064 239° Southwest 367 422 16,500 -2,132 Descending Washington Center
Sun 07:46:47 PM 35.6700 -78.4172 244° Southwest 361 415 14,000 -2,109 Descending Washington Center
Sun 07:47:48 PM 35.6236 -78.5256 242° Southwest 355 409 12,000 -1,866 Descending Washington Center
Sun 07:48:46 PM 35.5836 -78.6211 243° Southwest 337 388 10,300 -1,714 Descending Washington Center
Sun 07:49:47 PM 35.5461 -78.7014 240° Southwest 285 328 8,600 -1,672 Descending Washington Center
Sun 07:51:00 PM 35.2380 -79.3883 241° Southwest  Level Estimated
Sun 07:58:00 PM 35.2380 -79.3883 54° Northeast  Level Estimated
Sun 07:59:00 PM 35.2380 -79.3883 54° Northeast  Level Estimated
Sun 08:00:00 PM 35.2380 -79.3883 54° Northeast  Level Estimated

Login

Don't have an account? Register now (free) for customized features, flight alerts, and more!